Aviation Digital Data Service (ADDS)

Output produced by TAFs form (1635 UTC 24 April 2014)
found at http://aviationweather.gov/adds/tafs/
 
KGJT 241125Z 2412/2512 12004KT P6SM SKC 
     FM241800 31007KT P6SM SCT200 
     FM250300 06005KT P6SM FEW200 
     FM250600 11008KT P6SM SKC